createdAt,value
2023-06-16T01:05:36.520Z,97519.84
2023-06-16T01:08:07.126Z,97516.09
2023-06-16T01:10:35.261Z,97519.59
2023-06-16T01:13:07.397Z,97529.06
2023-06-16T01:15:35.129Z,97515.97
2023-06-16T01:18:03.029Z,97517.50
2023-06-16T01:20:32.259Z,97517.69
2023-06-16T01:23:03.565Z,97507.03
2023-06-16T01:25:33.235Z,97511.81
2023-06-16T01:28:01.798Z,97526.56
2023-06-16T01:30:31.379Z,97520.25
2023-06-16T01:32:59.321Z,97520.56
2023-06-16T01:35:29.016Z,97520.09
2023-06-16T01:37:56.692Z,97514.19
2023-06-16T01:40:24.396Z,97504.91
2023-06-16T01:42:54.807Z,97497.06
2023-06-16T01:45:22.626Z,97503.56
2023-06-16T01:47:50.530Z,97496.66
2023-06-16T01:50:18.548Z,97496.19
2023-06-16T01:52:46.476Z,97494.50
2023-06-16T01:55:14.155Z,97486.31
2023-06-16T01:57:44.120Z,97490.50
2023-06-16T02:00:14.941Z,97485.78
2023-06-16T02:02:44.368Z,97496.63
2023-06-16T02:57:22.892Z,97509.56
2023-06-16T02:59:51.257Z,97517.03
2023-06-16T03:02:19.834Z,97504.84
2023-06-16T03:04:54.229Z,97505.56
2023-06-16T03:07:25.893Z,97507.63
2023-06-16T03:09:53.657Z,97499.38
2023-06-16T03:12:26.080Z,97497.78
2023-06-16T03:15:00.980Z,97501.22
2023-06-16T03:17:28.774Z,97493.56
2023-06-16T03:19:56.586Z,97500.25
2023-06-16T03:22:33.650Z,97497.56
2023-06-16T03:25:04.155Z,97503.47
2023-06-16T03:27:38.579Z,97505.09
2023-06-16T03:30:07.006Z,97500.56
2023-06-16T03:32:51.600Z,97510.41
2023-06-16T03:35:19.967Z,97511.38
2023-06-16T03:37:48.403Z,97511.13
2023-06-16T03:40:18.613Z,97507.47
2023-06-16T03:42:48.149Z,97509.16
2023-06-16T03:45:16.182Z,97504.78
2023-06-16T03:47:44.112Z,97493.84
2023-06-16T03:50:11.998Z,97497.56
2023-06-16T03:52:43.320Z,97506.69
2023-06-16T03:55:11.597Z,97510.78
2023-06-16T03:57:39.791Z,97518.50
2023-06-16T04:00:11.076Z,97526.31
2023-06-16T04:02:48.221Z,97524.41
2023-06-16T04:25:49.278Z,97549.31
2023-06-16T05:48:13.379Z,97554.88
2023-06-16T05:50:41.781Z,97556.13
2023-06-16T05:53:09.762Z,97553.25
2023-06-16T05:55:40.882Z,97554.50
2023-06-16T05:58:09.063Z,97550.69
2023-06-16T06:00:36.721Z,97550.84
2023-06-16T06:03:13.449Z,97539.06
2023-06-16T06:05:41.195Z,97533.75
2023-06-16T06:08:11.427Z,97538.25
2023-06-16T06:10:41.179Z,97535.59
2023-06-16T06:13:08.823Z,97546.81
2023-06-16T06:15:39.229Z,97549.66
2023-06-16T06:18:11.253Z,97541.50
2023-06-16T06:20:43.082Z,97548.44
2023-06-16T06:23:10.822Z,97550.06
2023-06-16T06:25:41.329Z,97538.81
2023-06-16T06:28:10.227Z,97536.34
2023-06-16T06:30:38.979Z,97549.88
2023-06-16T06:33:06.830Z,97548.38
2023-06-16T06:35:34.635Z,97541.88
2023-06-16T06:38:04.209Z,97549.56
2023-06-16T06:40:33.207Z,97553.28
2023-06-16T06:43:02.628Z,97545.53
2023-06-16T06:45:43.831Z,97537.97
2023-06-16T06:48:11.471Z,97547.00
2023-06-16T06:50:40.561Z,97555.34
2023-06-16T06:53:10.085Z,97563.63
2023-06-16T06:55:37.684Z,97541.25
2023-06-16T06:58:05.276Z,97532.19
2023-06-16T07:00:32.873Z,97533.22
2023-06-16T07:03:00.974Z,97535.44
2023-06-16T07:05:28.893Z,97536.97
2023-06-16T07:07:56.512Z,97521.03
2023-06-16T07:10:25.443Z,97513.00
2023-06-16T07:12:52.979Z,97502.50
2023-06-16T07:15:20.676Z,97508.94
2023-06-16T07:17:48.274Z,97511.22
2023-06-16T07:20:16.064Z,97507.41
2023-06-16T07:22:46.178Z,97502.59
2023-06-16T07:25:13.878Z,97508.06
2023-06-16T07:27:44.392Z,97510.53
2023-06-16T07:30:12.566Z,97504.78
2023-06-16T07:32:40.617Z,97510.16
2023-06-16T07:35:09.485Z,97512.28
2023-06-16T07:37:37.172Z,97513.38
2023-06-16T07:40:08.215Z,97521.38
2023-06-16T07:42:35.905Z,97523.53
2023-06-16T07:45:05.256Z,97517.63
2023-06-16T07:47:32.865Z,97513.56
2023-06-16T07:50:00.584Z,97517.75
2023-06-16T07:52:28.237Z,97521.81
2023-06-16T07:54:56.337Z,97528.31
2023-06-16T07:57:23.948Z,97516.06
2023-06-16T07:59:51.875Z,97513.09
2023-06-16T08:02:20.860Z,97503.78
2023-06-16T08:04:48.573Z,97501.59
2023-06-16T08:07:16.170Z,97494.63
2023-06-16T08:09:44.038Z,97491.03
2023-06-16T08:12:12.212Z,97497.34
2023-06-16T08:14:39.852Z,97502.53
2023-06-16T08:17:07.799Z,97506.88
2023-06-16T19:49:43.270Z,97578.94
2023-06-16T19:52:10.922Z,97579.25
2023-06-16T19:54:38.820Z,97579.75
2023-06-16T19:57:06.861Z,97576.84
2023-06-16T19:59:34.962Z,97584.19
2023-06-16T20:02:02.885Z,97582.50
2023-06-16T20:04:31.222Z,97578.88
2023-06-16T20:07:01.296Z,97577.69
2023-06-16T20:09:29.033Z,97577.28
2023-06-16T20:11:56.786Z,97574.31
2023-06-16T20:14:27.880Z,97574.41
2023-06-16T20:16:57.225Z,97571.19
2023-06-16T20:19:25.976Z,97568.44
2023-06-16T20:21:53.548Z,97573.19
2023-06-16T20:24:22.950Z,97557.34
2023-06-16T20:26:50.753Z,97552.94
2023-06-16T20:29:18.585Z,97538.84
2023-06-16T20:31:46.519Z,97538.81
2023-06-16T20:34:14.115Z,97534.63
2023-06-16T20:36:46.200Z,97526.63
2023-06-16T20:39:15.747Z,97520.72
2023-06-16T20:41:44.812Z,97514.03
2023-06-16T20:44:12.741Z,97509.44
2023-06-16T20:46:40.484Z,97506.63
2023-06-16T20:49:10.162Z,97522.31
2023-06-16T20:51:38.053Z,97526.19
2023-06-16T20:54:05.903Z,97542.31
2023-06-16T20:56:34.381Z,97539.03
2023-06-16T20:59:03.612Z,97528.84
2023-06-16T21:01:40.823Z,97521.28
2023-06-16T21:04:13.201Z,97522.66
2023-06-16T21:06:41.615Z,97521.06
2023-06-16T21:09:10.768Z,97521.50
2023-06-16T21:11:38.502Z,97535.59
2023-06-16T21:14:07.694Z,97536.22
2023-06-16T21:16:37.557Z,97541.09
2023-06-16T21:19:06.181Z,97540.28
2023-06-16T21:21:33.956Z,97549.25
2023-06-16T21:24:01.857Z,97544.31
2023-06-16T21:26:29.538Z,97541.91
2023-06-16T21:28:57.174Z,97525.75
2023-06-16T21:31:26.105Z,97526.19
2023-06-16T21:33:53.718Z,97533.34
2023-06-16T21:36:21.407Z,97527.38
2023-06-16T21:38:56.149Z,97521.50
2023-06-16T21:41:25.193Z,97519.84
2023-06-16T21:43:52.845Z,97525.56
2023-06-16T21:46:20.807Z,97515.38
2023-06-16T21:48:49.924Z,97534.78
2023-06-16T21:51:17.530Z,97546.41
2023-06-16T21:53:45.179Z,97553.34
2023-06-16T21:56:12.830Z,97547.44
2023-06-16T21:58:40.690Z,97545.19
2023-06-16T22:01:08.466Z,97544.78
2023-06-16T22:03:36.152Z,97535.59
2023-06-16T22:06:05.642Z,97538.63
2023-06-16T22:08:33.290Z,97535.34
2023-06-16T22:11:01.656Z,97540.47
2023-06-16T22:13:30.067Z,97534.78
2023-06-16T22:16:11.632Z,97534.38
2023-06-16T22:18:39.208Z,97535.00
2023-06-16T22:21:08.174Z,97532.75
2023-06-16T22:23:35.912Z,97532.34
2023-06-16T22:26:04.326Z,97538.25
2023-06-16T22:28:34.079Z,97537.84
2023-06-16T22:31:01.820Z,97544.13
2023-06-16T22:33:30.651Z,97545.53
2023-06-16T22:35:58.239Z,97551.88
2023-06-16T22:38:27.224Z,97554.09
2023-06-16T22:40:54.794Z,97556.13
2023-06-16T22:43:22.386Z,97556.16
2023-06-16T22:45:50.025Z,97557.41
2023-06-16T22:48:17.703Z,97559.44
2023-06-16T22:50:48.128Z,97558.22
2023-06-16T22:53:15.875Z,97572.06
2023-06-16T22:55:44.988Z,97566.84
2023-06-16T22:58:12.569Z,97572.47
2023-06-16T23:00:40.175Z,97566.22
2023-06-16T23:03:07.841Z,97563.56
2023-06-16T23:05:35.740Z,97560.50
2023-06-16T23:08:03.349Z,97558.44
2023-06-16T23:10:31.018Z,97553.97
2023-06-16T23:13:00.139Z,97544.75
2023-06-16T23:15:27.707Z,97541.72
2023-06-16T23:17:55.381Z,97539.06
2023-06-16T23:20:23.108Z,97545.97
2023-06-16T23:22:51.351Z,97550.09
2023-06-16T23:25:21.349Z,97546.31
2023-06-16T23:27:50.424Z,97552.66
2023-06-16T23:30:19.787Z,97554.34
2023-06-16T23:32:48.209Z,97551.50
2023-06-16T23:35:16.129Z,97540.69
2023-06-16T23:37:43.895Z,97541.09
2023-06-16T23:40:11.877Z,97547.59
2023-06-16T23:42:39.512Z,97543.97
2023-06-16T23:45:07.770Z,97543.56
2023-06-16T23:47:36.830Z,97536.00
2023-06-16T23:50:04.569Z,97529.06
2023-06-16T23:52:33.454Z,97537.63
2023-06-16T23:55:01.027Z,97538.44
2023-06-16T23:57:29.825Z,97544.16
2023-06-16T23:59:57.629Z,97532.13
